Kearny, New Jersey
Current Conditions -  °F | °C
As of 5:51 PM on Thursday 18 Dec 2014 (Local Time) from KEWR Reporting Station
Broken Clouds Broken Clouds  
Wind Chill: 30°   Ceiling: 3500
Heat Index: 39°   Visibility: 10mi
Dew Point: 26°   Wind: 16mph
Humidity: 60%   Direction: 310°NW
Pressure: 29.98"   Gusts: 26mph
Location:  40.76°N, 74.15°W
Report Text: KEWR 182251Z 31014G23KT 10SM BKN035 04/M03 A2998 RMK AO2 SLP151 T00391033
Loading
Personal Weather Stations






























Interactive Weather Map New forecast layout! Learn more

10-Day Weather Forecast

Advertisements
Track Severe Weather on mobile